Atlantic, North Carolina
Current Conditions -  °F | °C
As of 4:56 AM on Friday 28 Nov 2014 (Local Time) from KNBT Reporting Station
Broken Clouds Broken Clouds  
Wind Chill: 33°   Ceiling: 4700
Heat Index: 41°   Visibility: NA
Dew Point: 28°   Wind: 15mph
Humidity: 60%   Direction: 320°NW
Pressure: 30.24"   Gusts: 28mph
Location:  34.89°N, 76.34°W
Report Text: KNBT 280956Z AUTO 32013G24KT BKN047 05/M02 A3024 RMK AO2 SLP245 T00501022 PNO $
Loading
Personal Weather Stations






























Interactive Weather Map New forecast layout! Learn more

10-Day Weather Forecast

Advertisements
Track Severe Weather on mobile